Japan Airlines Virtual Airport Information Service

Kagoshima Airport

ICAO: RJFK Country: Japan
Latitude: 31.8034 Longitude: 130.719
Latest Arrival : JAL651 (RJTT-RJFK) Latest Departure : JAL654 (RJFK-RJTT)


WX CaptureLIVE
Data provided by noaa.gov | Fetched at 16:16:05

METAR : RJFK 281222Z 32017G31KT 8000 FEW025 BKN030 08/02 Q1014 RMK 1CU025 7CU030 A2996

TAF : RJFK 281105Z 2812/2918 31018KT 9999 FEW015 BKN025 TEMPO 2812/2818 31020G30KT TEMPO 2900/2906 33020G30KT BECMG 2909/2912 34007KT


Runway Data for RJFK
Data provided by openaviationdata.com

Runway ID Mag Var Hdg Length Elevation Surface ILS Freq ILS Id ILS Slope
16 -6 156° 9856 ft 892 ft Asphalt -- -- --
34 -6 336° 9856 ft 892 ft Asphalt 111.7 IKG 3

Kagoshima Airport, Japan
Use only for reference purposes



Not for navigational purposes.